Update 04.10.19: Almanach/History: Die WU Grafiken funktionieren wieder!!
Besuchen Sie den Menüpunkt "Almanach / History" WU-Grafiken um Wetterdaten über die Jahre zu vergleichen!
Die Daten stammen von meiner Wetterstation und wurden von Weatherunderground aufgezeichnet.

Rindlberg West Mehr Informationen Rindlberg West


Stuetzi - Rindlberg Ost Mehr Informationen Stuetzi - Rindlberg Ost


Regenradar Mehr Informationen rain snow radar


Sie finden meine Wetter-Infos auch auf:

Weather Underground

AWEKAS



METAR-Meldungen aus der Umgebung

Warning: A non-numeric value encountered in /home/.sites/50/site8222718/web/weather28/metar/metarDisplay.php on line 166
   
LOWL - Linz
Aktualisierung: 24-01-2020 23:20
Nebel, Teilweise bewölkt  
Nebel, Teilweise bewölkt  
   Wind: variiert 1.9 km/h
Wind: variiert 1.9 km/h
Temperatur: -3°C
Taupunkt: -3°C
Luftfeuchte: 100%
Luftdruck: 1024 hPa
Wolken: Teilweise bewölkt
Sichtbarkeit: 4 km
Bewölkung: Teilweise bewölkt
LOWL 242220Z AUTO VRB01KT 3500 BR NSC M03/M03 Q1024
LOWW - Vienna
Aktualisierung: 24-01-2020 23:20
Nebel, Stark bewölkt  
Nebel, Stark bewölkt  
   Wind: Süden 9.3 km/h
Wind: Süden 9.3 km/h
Temperatur: -2°C
Gefühlt: -6°C
Taupunkt: -3°C
Luftfeuchte: 93%
Luftdruck: 1024 hPa
Wolken: Stark bewölkt
Sichtbarkeit: 3 km
Bewölkung: leicht bewölkt 100 ft,
Stark bewölkt 200 ft
LOWW 242220Z 17005KT 2800 BR FEW001 BKN002 M02/M03 Q1024 TEMPO BKN001
 

Script entwickelt von  Saratoga-weather.org Angepasst für das Template von  Weerstation Leuven